Time;durP1;ratioP1;P1;durP2;ratioP2;P2;SDS_P1;SDS_P2;PMS_P1;PMS_P2;Temp;Humidity;BMP_temperature;BMP_pressure;BME280_temperature;BME280_humidity;BME280_pressure;Samples;Min_cycle;Max_cycle;Signal;HPM_P1;HPM_P2
2022/10/27 00:01:36;;;;;;;9.40;2.67;;;;;;;12.58;57.23;94821.41;5062707;28;20013;-79
2022/10/27 00:04:02;;;;;;;5.43;2.10;;;;;;;12.54;57.79;94818.53;5062610;28;20028;-78
2022/10/27 00:06:27;;;;;;;5.80;2.33;;;;;;;12.51;57.64;94829.03;5062844;28;20064;-78
2022/10/27 00:08:52;;;;;;;6.05;2.47;;;;;;;12.48;57.66;94827.78;5044841;28;20024;-78
2022/10/27 00:11:18;;;;;;;9.70;3.28;;;;;;;12.45;57.79;94831.81;5062929;28;20025;-78
2022/10/27 00:13:44;;;;;;;3.35;1.83;;;;;;;12.44;57.98;94830.25;5062652;28;20017;-78
2022/10/27 00:16:14;;;;;;;4.68;2.25;;;;;;;12.42;57.88;94837.78;5062540;28;20020;-78
2022/10/27 00:18:40;;;;;;;3.83;1.90;;;;;;;12.36;58.16;94836.31;5062656;28;20031;-78
2022/10/27 00:21:09;;;;;;;4.63;1.90;;;;;;;12.32;58.49;94829.19;5062475;28;20274;-78
2022/10/27 00:23:36;;;;;;;3.45;2.08;;;;;;;12.27;58.49;94838.09;5062384;28;20315;-78
2022/10/27 00:26:03;;;;;;;4.35;2.28;;;;;;;12.27;58.37;94818.59;5062541;28;20036;-78
2022/10/27 00:28:29;;;;;;;4.43;2.50;;;;;;;12.25;58.49;94832.25;5044694;28;20017;-78
2022/10/27 00:30:59;;;;;;;8.15;3.40;;;;;;;12.24;58.62;94815.44;5062389;28;20017;-79
2022/10/27 00:33:25;;;;;;;5.68;3.10;;;;;;;12.26;58.67;94827.72;5062508;28;20093;-79
2022/10/27 00:35:50;;;;;;;9.10;3.70;;;;;;;12.22;58.79;94825.63;5062377;28;20339;-79
2022/10/27 00:38:16;;;;;;;7.18;3.20;;;;;;;12.25;58.89;94826.91;5062655;28;20051;-79
2022/10/27 00:40:41;;;;;;;6.43;2.72;;;;;;;12.24;58.81;94826.13;5062495;28;20055;-79
2022/10/27 00:43:42;;;;;;;7.55;2.83;;;;;;;12.24;59.11;94836.03;5062290;28;20028;-79
2022/10/27 00:46:29;;;;;;;7.93;3.35;;;;;;;12.25;59.17;94840.28;5001107;28;20033;-79
2022/10/27 00:49:03;;;;;;;5.30;2.63;;;;;;;12.23;59.18;94837.91;5058450;28;20253;-79
2022/10/27 00:51:29;;;;;;;8.27;3.67;;;;;;;12.22;59.16;94836.31;5062290;28;20071;-79
2022/10/27 00:53:54;;;;;;;7.40;2.88;;;;;;;12.23;59.38;94845.94;5062394;28;20020;-79
2022/10/27 00:56:22;;;;;;;8.00;2.60;;;;;;;12.22;59.77;94855.03;5062277;28;20021;-79
2022/10/27 00:58:48;;;;;;;5.28;2.38;;;;;;;12.18;59.79;94847.91;5066305;28;20145;-79
2022/10/27 01:01:14;;;;;;;5.90;2.63;;;;;;;12.12;59.17;94844.53;5066284;28;20023;-79
2022/10/27 01:03:40;;;;;;;6.22;2.20;;;;;;;12.08;58.53;94854.25;5066109;28;20017;-79
2022/10/27 01:06:07;;;;;;;4.70;1.92;;;;;;;12.08;58.27;94853.47;5048188;28;20024;-78
2022/10/27 01:08:33;;;;;;;4.60;2.05;;;;;;;12.08;58.58;94851.56;5066213;28;20044;-79
2022/10/27 01:10:58;;;;;;;8.63;2.63;;;;;;;12.11;58.85;94858.19;5065817;28;20298;-79
2022/10/27 01:13:24;;;;;;;9.93;3.40;;;;;;;12.08;58.60;94864.94;5065955;28;20017;-79
2022/10/27 01:16:07;;;;;;;8.32;3.50;;;;;;;12.05;57.94;94852.19;5066206;28;20021;-79
2022/10/27 01:18:41;;;;;;;17.70;5.10;;;;;;;12.02;57.97;94853.53;5065843;28;20025;-79
2022/10/27 01:21:25;;;;;;;6.57;2.50;;;;;;;12.04;58.40;94855.94;5066029;28;20025;-79
2022/10/27 01:24:36;;;;;;;6.80;2.92;;;;;;;12.05;59.11;94860.19;5065775;28;20036;-79
2022/10/27 01:27:07;;;;;;;8.57;2.35;;;;;;;12.02;59.45;94860.78;5065651;28;20067;-79
2022/10/27 01:30:12;;;;;;;5.22;2.25;;;;;;;12.01;59.79;94859.22;5065537;28;20028;-79
2022/10/27 01:33:01;;;;;;;6.07;2.60;;;;;;;12.00;60.22;94868.31;5065732;28;20071;-79
2022/10/27 01:35:51;;;;;;;5.50;2.63;;;;;;;11.97;60.40;94867.03;5048064;28;20041;-79
2022/10/27 01:38:20;;;;;;;5.20;2.30;;;;;;;11.96;60.69;94864.63;5065615;28;20092;-79
2022/10/27 01:40:56;;;;;;;6.63;3.15;;;;;;;11.94;60.87;94861.47;5065482;28;20088;-79
2022/10/27 01:43:25;;;;;;;11.70;2.92;;;;;;;11.94;60.68;94870.28;5065281;28;20115;-79
2022/10/27 01:45:52;;;;;;;10.57;2.70;;;;;;;11.94;61.00;94864.94;5065561;28;20099;-79
2022/10/27 01:48:19;;;;;;;7.28;3.10;;;;;;;11.92;60.50;94855.63;5065334;28;20024;-78
2022/10/27 01:50:44;;;;;;;8.15;2.92;;;;;;;11.88;59.71;94862.63;5065453;28;20036;-78
2022/10/27 01:53:11;;;;;;;9.82;3.10;;;;;;;11.81;59.63;94850.47;5065095;28;20289;-78
2022/10/27 01:55:50;;;;;;;8.55;3.40;;;;;;;11.76;59.57;94861.22;5065248;28;20024;-78
2022/10/27 01:58:43;;;;;;;8.38;3.22;;;;;;;11.74;59.92;94858.06;5065051;28;20032;-78
2022/10/27 02:01:20;;;;;;;6.82;3.50;;;;;;;11.74;60.11;94847.38;5065103;28;20021;-79
2022/10/27 02:03:52;;;;;;;8.60;3.20;;;;;;;11.69;60.54;94854.72;5064814;28;20040;-79
2022/10/27 02:06:24;;;;;;;7.05;2.72;;;;;;;11.70;60.50;94848.25;5065248;28;20036;-78
2022/10/27 02:09:24;;;;;;;6.05;2.70;;;;;;;11.71;60.92;94850.66;5064969;28;20056;-78
2022/10/27 02:11:53;;;;;;;9.13;2.78;;;;;;;11.73;61.28;94845.03;5045136;28;20025;-78
2022/10/27 02:14:19;;;;;;;7.22;2.30;;;;;;;11.74;61.33;94847.38;5065082;28;20276;-78
2022/10/27 02:16:50;;;;;;;7.40;2.80;;;;;;;11.77;61.74;94840.66;5064737;28;20016;-78
2022/10/27 02:19:27;;;;;;;6.50;3.03;;;;;;;11.79;62.24;94841.16;5064682;28;20043;-79
2022/10/27 02:21:56;;;;;;;6.43;3.28;;;;;;;11.76;61.83;94850.53;5064774;28;20021;-78
2022/10/27 02:24:23;;;;;;;5.88;2.88;;;;;;;11.76;61.95;94841.75;5064618;28;20039;-78
2022/10/27 02:27:22;;;;;;;9.57;3.58;;;;;;;11.79;62.28;94846.50;5064612;28;20043;-78
2022/10/27 02:29:52;;;;;;;7.82;3.55;;;;;;;11.76;62.22;94858.56;5026158;28;20086;-79
2022/10/27 02:32:20;;;;;;;8.70;4.00;;;;;;;11.76;62.32;94863.09;5064389;28;20017;-79
2022/10/27 02:34:48;;;;;;;6.70;2.85;;;;;;;11.75;61.31;94873.00;5064419;28;20020;-79
2022/10/27 02:37:21;;;;;;;3.05;2.13;;;;;;;11.74;61.17;94871.41;5064425;28;20024;-78
2022/10/27 02:39:46;;;;;;;5.22;2.22;;;;;;;11.69;61.21;94874.19;5064415;28;20025;-78
2022/10/27 02:42:12;;;;;;;5.68;3.03;;;;;;;11.65;61.06;94876.66;5064259;28;20092;-78
2022/10/27 02:44:37;;;;;;;5.45;2.70;;;;;;;11.56;61.11;94881.09;5064437;28;20270;-77
2022/10/27 02:47:02;;;;;;;11.95;3.50;;;;;;;11.53;60.54;94870.22;5064497;28;20299;-78
2022/10/27 02:49:28;;;;;;;5.50;3.45;;;;;;;11.51;60.82;94877.72;5064257;28;20020;-78
2022/10/27 02:51:53;;;;;;;7.65;3.38;;;;;;;11.48;61.13;94875.63;5064068;28;20021;-78
2022/10/27 02:54:19;;;;;;;6.88;3.20;;;;;;;11.48;61.23;94872.94;5064134;28;20088;-78
2022/10/27 02:56:44;;;;;;;8.02;3.33;;;;;;;11.49;60.74;94875.34;5064001;28;20021;-78
2022/10/27 02:59:10;;;;;;;6.05;3.05;;;;;;;11.49;61.10;94879.88;5063887;28;20017;-78
2022/10/27 03:01:35;;;;;;;10.55;3.42;;;;;;;11.53;61.49;94876.34;5064093;28;20345;-78
2022/10/27 03:04:01;;;;;;;13.32;4.28;;;;;;;11.54;61.63;94885.13;5063724;28;20337;-78
2022/10/27 03:06:26;;;;;;;8.80;3.53;;;;;;;11.56;61.91;94890.97;5064034;28;20108;-78
2022/10/27 03:08:52;;;;;;;9.55;2.83;;;;;;;11.56;61.81;94885.63;5063813;28;20056;-78
2022/10/27 03:11:17;;;;;;;22.45;2.78;;;;;;;11.57;61.95;94881.88;5064005;28;20092;-78
2022/10/27 03:13:42;;;;;;;7.32;2.70;;;;;;;11.55;62.16;94878.72;5063741;28;20028;-78
2022/10/27 03:16:08;;;;;;;10.10;2.72;;;;;;;11.53;62.41;94886.22;5063813;28;20044;-78
2022/10/27 03:18:33;;;;;;;4.80;2.47;;;;;;;11.54;62.44;94883.28;5063646;28;20128;-78
2022/10/27 03:20:59;;;;;;;6.63;2.70;;;;;;;11.54;62.30;94898.47;5063364;28;20071;-78
2022/10/27 03:23:24;;;;;;;8.43;2.55;;;;;;;11.53;61.55;94895.03;5063482;28;20032;-78
2022/10/27 03:25:50;;;;;;;10.75;3.25;;;;;;;11.54;61.68;94907.31;5063604;28;20025;-78
2022/10/27 03:28:15;;;;;;;5.28;2.45;;;;;;;11.54;61.34;94909.16;5063363;28;20028;-78
2022/10/27 03:30:41;;;;;;;9.35;2.72;;;;;;;11.55;60.88;94905.41;5063535;28;20331;-78
2022/10/27 03:33:06;;;;;;;9.82;3.53;;;;;;;11.57;60.85;94905.91;5063320;28;20429;-78
2022/10/27 03:35:32;;;;;;;8.07;3.40;;;;;;;11.57;60.79;94908.59;5063307;28;20370;-78
2022/10/27 03:37:59;;;;;;;7.82;2.90;;;;;;;11.59;60.69;94903.75;5063177;28;20025;-78
2022/10/27 03:40:25;;;;;;;7.38;3.17;;;;;;;11.60;61.00;94910.66;5063330;28;20028;-78
2022/10/27 03:42:56;;;;;;;9.77;3.45;;;;;;;11.61;61.16;94909.59;5063281;28;20024;-78
2022/10/27 03:45:22;;;;;;;6.15;2.72;;;;;;;11.62;61.14;94911.97;5063325;28;20104;-78
2022/10/27 03:47:47;;;;;;;10.77;3.30;;;;;;;11.63;61.58;94913.53;5063295;28;20021;-78
2022/10/27 03:50:13;;;;;;;8.52;3.80;;;;;;;11.60;61.75;94907.97;5063012;28;20154;-78
2022/10/27 03:52:38;;;;;;;6.65;3.10;;;;;;;11.54;61.99;94901.16;5062943;28;20020;-78
2022/10/27 03:55:04;;;;;;;5.38;2.95;;;;;;;11.52;62.13;94905.97;5063037;28;20052;-78
2022/10/27 03:57:30;;;;;;;9.30;3.38;;;;;;;11.53;62.14;94907.59;5062726;28;20021;-78
2022/10/27 03:59:55;;;;;;;7.47;2.72;;;;;;;11.51;62.21;94904.41;5062899;28;20051;-78
2022/10/27 04:02:20;;;;;;;9.43;3.65;;;;;;;11.54;61.83;94895.81;5062599;28;20040;-79
2022/10/27 04:04:46;;;;;;;10.38;4.38;;;;;;;11.55;61.83;94892.84;5062765;28;20021;-78
2022/10/27 04:07:12;;;;;;;14.27;5.90;;;;;;;11.55;61.71;94884.84;5062631;28;20024;-78
2022/10/27 04:09:37;;;;;;;15.40;6.93;;;;;;;11.59;61.65;94888.50;5062553;28;20024;-79
2022/10/27 04:12:03;;;;;;;16.17;5.88;;;;;;;11.58;61.46;94888.78;5062720;28;20021;-79
2022/10/27 04:14:28;;;;;;;18.92;6.50;;;;;;;11.62;61.77;94879.09;5062645;28;20027;-78
2022/10/27 04:16:53;;;;;;;15.30;5.55;;;;;;;11.65;62.01;94889.22;5062484;28;20025;-78
2022/10/27 04:19:20;;;;;;;13.60;6.40;;;;;;;11.66;62.04;94898.78;5062703;28;20020;-78
2022/10/27 04:21:46;;;;;;;17.52;7.35;;;;;;;11.64;62.53;94903.63;5044783;28;20032;-78
2022/10/27 04:24:12;;;;;;;17.08;8.48;;;;;;;11.60;61.86;94914.13;5062330;28;20032;-78
2022/10/27 04:26:38;;;;;;;20.20;9.48;;;;;;;11.55;61.62;94911.53;5062496;28;20024;-78
2022/10/27 04:29:04;;;;;;;20.42;8.10;;;;;;;11.47;62.00;94920.22;5062573;28;20283;-78
2022/10/27 04:31:29;;;;;;;14.00;6.93;;;;;;;11.44;61.93;94924.28;5061544;28;20032;-78
2022/10/27 04:33:55;;;;;;;11.60;5.75;;;;;;;11.44;62.15;94928.81;5062489;28;20020;-78
2022/10/27 04:36:20;;;;;;;9.27;4.40;;;;;;;11.42;62.09;94920.31;5062266;28;20037;-78
2022/10/27 04:38:49;;;;;;;15.13;5.60;;;;;;;11.43;62.34;94924.56;5062210;28;20031;-78
2022/10/27 04:41:15;;;;;;;14.88;6.35;;;;;;;11.41;62.84;94924.06;5062404;28;20047;-79
2022/10/27 04:43:40;;;;;;;10.88;5.25;;;;;;;11.37;63.33;94910.50;5062110;28;20375;-79
2022/10/27 04:46:06;;;;;;;11.80;3.92;;;;;;;11.29;63.49;94915.72;5062087;28;20096;-78
2022/10/27 04:48:31;;;;;;;12.73;5.63;;;;;;;11.28;63.72;94917.59;5062341;28;20021;-79
2022/10/27 04:50:56;;;;;;;14.43;5.03;;;;;;;11.25;63.74;94920.84;5062308;28;20032;-78
2022/10/27 04:53:22;;;;;;;12.90;4.75;;;;;;;11.26;63.78;94914.44;5062317;28;20319;-78
2022/10/27 04:55:49;;;;;;;13.38;4.00;;;;;;;11.24;63.79;94916.59;5062679;28;20033;-79
2022/10/27 04:58:15;;;;;;;10.30;4.20;;;;;;;11.21;63.79;94923.31;5062141;28;20029;-78
2022/10/27 05:00:41;;;;;;;10.52;3.80;;;;;;;11.19;63.95;94914.00;5061983;28;20079;-79
2022/10/27 05:03:07;;;;;;;16.85;4.57;;;;;;;11.16;64.04;94919.91;5062193;28;20029;-79
2022/10/27 05:05:33;;;;;;;12.02;4.53;;;;;;;11.15;63.88;94918.31;5062131;28;20025;-79
2022/10/27 05:08:01;;;;;;;13.75;4.47;;;;;;;11.11;64.24;94928.00;5062012;28;20025;-79
2022/10/27 05:10:28;;;;;;;24.98;4.05;;;;;;;11.04;64.10;94923.81;5062118;28;20025;-78
2022/10/27 05:12:53;;;;;;;13.38;3.28;;;;;;;11.00;63.84;94936.13;5061937;28;20020;-79
2022/10/27 05:15:19;;;;;;;12.98;3.80;;;;;;;10.99;63.94;94937.25;5062295;28;20027;-78
2022/10/27 05:17:44;;;;;;;10.45;4.18;;;;;;;10.95;63.54;94946.91;5062021;28;20219;-78
2022/10/27 05:20:10;;;;;;;20.55;4.53;;;;;;;10.95;63.55;94956.75;5061898;28;20349;-78
2022/10/27 05:22:37;;;;;;;13.65;4.03;;;;;;;10.95;63.80;94959.41;5061663;28;20094;-78
2022/10/27 05:25:03;;;;;;;24.75;5.18;;;;;;;10.96;64.13;94966.34;5061780;28;20062;-78
2022/10/27 05:27:31;;;;;;;13.05;4.07;;;;;;;10.96;63.95;94963.69;5061946;28;20024;-78
2022/10/27 05:29:56;;;;;;;19.35;5.32;;;;;;;10.96;64.31;94980.47;5061798;28;20256;-78
2022/10/27 05:32:22;;;;;;;16.20;4.72;;;;;;;10.94;64.41;94973.84;5061911;28;20017;-78
2022/10/27 05:34:47;;;;;;;17.73;4.22;;;;;;;10.92;64.36;94982.13;5061552;28;20337;-77
2022/10/27 05:37:13;;;;;;;29.50;10.90;;;;;;;10.92;63.94;94992.81;5061860;28;20315;-77
2022/10/27 05:39:39;;;;;;;16.55;5.95;;;;;;;10.93;64.20;94991.75;5061684;28;20020;-77
2022/10/27 05:42:04;;;;;;;15.15;5.18;;;;;;;10.93;63.86;95009.59;5061531;28;20045;-78
2022/10/27 05:44:30;;;;;;;12.55;5.63;;;;;;;10.91;64.24;95009.09;5064836;28;20021;-78
2022/10/27 05:46:55;;;;;;;13.07;5.60;;;;;;;10.89;64.23;95012.06;5065371;28;20028;-79
2022/10/27 05:49:21;;;;;;;21.27;5.88;;;;;;;10.91;64.08;95009.91;5065516;28;20028;-79
2022/10/27 05:51:50;;;;;;;18.27;5.63;;;;;;;10.94;64.34;95011.19;5065287;28;20032;-78
2022/10/27 05:54:15;;;;;;;18.60;5.55;;;;;;;10.91;64.51;95009.91;5065298;28;20021;-79
2022/10/27 05:56:41;;;;;;;22.17;7.07;;;;;;;10.93;64.52;95015.75;5064846;28;20350;-80
2022/10/27 05:59:06;;;;;;;21.75;6.68;;;;;;;10.94;64.68;95017.31;5063952;28;20028;-79
2022/10/27 06:01:32;;;;;;;17.50;6.00;;;;;;;10.98;64.60;95018.34;5064996;28;20024;-79
2022/10/27 06:03:57;;;;;;;17.48;6.15;;;;;;;11.02;64.56;95029.22;5064856;28;20056;-80
2022/10/27 06:06:23;;;;;;;31.73;6.95;;;;;;;11.02;64.47;95035.34;5065242;28;20071;-81
2022/10/27 06:08:49;;;;;;;23.50;6.63;;;;;;;10.99;64.28;95025.28;5065139;28;20025;-80
2022/10/27 06:11:14;;;;;;;27.92;6.45;;;;;;;10.98;64.76;95041.56;5065092;28;20251;-80
2022/10/27 06:13:39;;;;;;;27.92;6.88;;;;;;;10.98;64.95;95026.34;5065138;28;20017;-80
2022/10/27 06:16:05;;;;;;;30.30;7.30;;;;;;;10.98;64.15;95029.00;5064992;28;20227;-80
2022/10/27 06:18:30;;;;;;;20.05;6.53;;;;;;;11.03;64.23;95031.63;5064808;28;20025;-80
2022/10/27 06:20:56;;;;;;;27.85;7.20;;;;;;;11.10;64.22;95019.81;5064782;28;20046;-80
2022/10/27 06:23:22;;;;;;;15.30;6.05;;;;;;;11.14;64.37;95018.94;5064707;28;20067;-80
2022/10/27 06:25:47;;;;;;;20.02;6.90;;;;;;;11.29;64.15;95027.81;5047289;28;20028;-80
2022/10/27 06:28:13;;;;;;;30.00;7.55;;;;;;;11.37;63.90;95032.50;5064950;28;20029;-81
2022/10/27 06:30:38;;;;;;;20.63;7.45;;;;;;;11.42;63.67;95040.44;5064575;28;20272;-80
2022/10/27 06:33:03;;;;;;;32.00;8.40;;;;;;;11.51;63.57;95048.59;5064684;28;20088;-80
2022/10/27 06:35:29;;;;;;;26.85;9.27;;;;;;;11.49;63.25;95045.41;5064510;28;20049;-81
2022/10/27 06:37:54;;;;;;;32.97;9.63;;;;;;;11.53;63.62;95052.53;5064691;28;20024;-80
2022/10/27 06:40:20;;;;;;;30.60;9.20;;;;;;;11.50;64.05;95053.13;5064934;28;20088;-80
2022/10/27 06:42:48;;;;;;;24.13;9.25;;;;;;;11.52;64.25;95050.16;5064261;28;20092;-79
2022/10/27 06:45:16;;;;;;;28.08;9.35;;;;;;;11.59;64.19;95056.72;5064623;28;20322;-78
2022/10/27 06:47:41;;;;;;;27.80;9.07;;;;;;;11.75;64.09;95061.84;5064412;28;20098;-79
2022/10/27 06:50:07;;;;;;;33.67;11.43;;;;;;;11.86;63.49;95052.59;5064344;28;20253;-77
2022/10/27 06:52:38;;;;;;;33.88;9.75;;;;;;;12.02;63.20;95061.97;5064160;28;20311;-77
2022/10/27 06:55:04;;;;;;;25.85;9.65;;;;;;;12.16;63.10;95058.56;5063382;28;20200;-78
2022/10/27 06:57:38;;;;;;;34.53;11.25;;;;;;;12.26;62.48;95057.59;5064164;28;20025;-82
2022/10/27 07:00:04;;;;;;;26.35;9.25;;;;;;;12.38;62.15;95055.25;5063580;28;20326;-85
2022/10/27 07:02:29;;;;;;;31.50;9.35;;;;;;;12.50;61.52;95063.56;5045514;28;20032;-83
2022/10/27 07:04:55;;;;;;;31.02;9.15;;;;;;;12.62;60.15;95060.41;5062377;28;20016;-83
2022/10/27 07:07:20;;;;;;;35.20;10.70;;;;;;;12.75;59.94;95061.50;5063969;28;20047;-81
2022/10/27 07:09:46;;;;;;;23.95;9.27;;;;;;;12.85;59.87;95064.00;5063619;28;20032;-84
2022/10/27 07:12:11;;;;;;;25.80;9.18;;;;;;;13.00;58.79;95060.22;5063773;28;20033;-81
2022/10/27 07:14:37;;;;;;;20.23;9.15;;;;;;;13.09;58.43;95068.31;5063767;28;20025;-85
2022/10/27 07:17:02;;;;;;;31.42;9.52;;;;;;;13.19;58.10;95063.56;5064359;28;20377;-88
2022/10/27 07:19:28;;;;;;;31.83;10.13;;;;;;;13.36;57.46;95073.69;5063629;28;20031;-85
2022/10/27 07:21:53;;;;;;;33.45;9.10;;;;;;;13.41;57.08;95070.91;5063488;28;20220;-84
2022/10/27 07:24:19;;;;;;;32.05;13.85;;;;;;;13.55;56.75;95070.06;5063606;28;20066;-81
2022/10/27 07:26:44;;;;;;;25.70;8.35;;;;;;;13.59;56.04;95082.53;5063647;28;20076;-81
2022/10/27 07:29:11;;;;;;;20.48;8.57;;;;;;;13.54;55.72;95085.34;5064302;28;20067;-81
2022/10/27 07:31:36;;;;;;;28.67;9.13;;;;;;;13.60;56.04;95086.03;5066498;28;20097;-77
2022/10/27 07:34:02;;;;;;;20.17;8.32;;;;;;;13.66;56.12;95090.19;5066266;28;20264;-78
2022/10/27 07:36:27;;;;;;;14.15;7.68;;;;;;;13.70;54.42;95095.72;5064525;28;20120;-80
2022/10/27 07:38:52;;;;;;;12.38;5.88;;;;;;;13.62;54.10;95097.25;5063290;28;20021;-84
2022/10/27 07:41:18;;;;;;;15.30;7.15;;;;;;;13.50;54.55;95099.66;5063536;28;20031;-83
2022/10/27 07:43:44;;;;;;;12.30;4.88;;;;;;;13.41;54.88;95091.50;5063148;28;20338;-82
2022/10/27 07:46:10;;;;;;;20.20;5.50;;;;;;;13.44;55.27;95099.75;5062877;28;20289;-83
2022/10/27 07:48:35;;;;;;;14.98;5.45;;;;;;;13.44;54.35;95101.63;5062932;28;20043;-81
2022/10/27 07:51:01;;;;;;;15.90;5.68;;;;;;;13.50;53.54;95102.34;5062988;28;20021;-84
2022/10/27 07:53:26;;;;;;;18.38;5.57;;;;;;;13.48;53.94;95101.84;5063080;28;20311;-84
2022/10/27 07:55:52;;;;;;;16.25;5.25;;;;;;;13.60;53.91;95105.56;5063078;28;20021;-82
2022/10/27 07:58:17;;;;;;;10.13;4.40;;;;;;;13.67;53.16;95099.78;5062930;28;20017;-82
2022/10/27 08:00:45;;;;;;;15.65;5.20;;;;;;;13.74;53.58;95100.19;5062945;28;20025;-80
2022/10/27 08:03:16;;;;;;;67.50;39.78;;;;;;;13.79;53.38;95099.28;5062983;28;20025;-80
2022/10/27 08:05:41;;;;;;;13.20;6.10;;;;;;;13.83;53.54;95098.34;5062769;28;20079;-82
2022/10/27 08:08:07;;;;;;;21.88;6.57;;;;;;;13.89;53.57;95101.72;5062607;28;20300;-82
2022/10/27 08:10:36;;;;;;;17.85;6.13;;;;;;;13.98;53.04;95094.56;5062973;28;20120;-79
2022/10/27 08:13:01;;;;;;;9.98;4.80;;;;;;;13.94;52.99;95090.91;5062789;28;20246;-82
2022/10/27 08:15:27;;;;;;;10.18;4.97;;;;;;;13.85;53.13;95090.81;5062614;28;20036;-82
2022/10/27 08:17:56;;;;;;;18.00;6.13;;;;;;;14.01;53.13;95082.41;5062637;28;20024;-79
2022/10/27 08:20:22;;;;;;;12.82;5.22;;;;;;;14.14;53.11;95076.19;5062795;28;20311;-79
2022/10/27 08:22:55;;;;;;;16.38;5.65;;;;;;;14.30;52.83;95075.81;5062578;28;20025;-78
2022/10/27 08:25:21;;;;;;;14.60;5.22;;;;;;;14.44;52.39;95082.69;5062553;28;20021;-79
2022/10/27 08:27:46;;;;;;;17.13;6.53;;;;;;;14.54;52.44;95076.28;5062506;28;20192;-79
2022/10/27 08:30:12;;;;;;;17.55;5.15;;;;;;;14.61;52.64;95084.72;5061178;28;20048;-80
2022/10/27 08:32:37;;;;;;;21.52;6.28;;;;;;;14.72;52.25;95079.09;5061872;28;20017;-78
2022/10/27 08:35:03;;;;;;;17.55;5.78;;;;;;;14.87;51.63;95086.72;5061972;28;20072;-79
2022/10/27 08:37:28;;;;;;;17.52;5.63;;;;;;;15.01;51.50;95092.75;5062377;28;20083;-79
2022/10/27 08:39:54;;;;;;;13.48;5.90;;;;;;;15.08;51.13;95086.16;5062548;28;20021;-79
2022/10/27 08:42:31;;;;;;;14.45;4.72;;;;;;;15.16;50.63;95082.69;5062341;28;20029;-81
2022/10/27 08:45:05;;;;;;;21.98;5.18;;;;;;;15.21;50.34;95091.41;5061953;28;20021;-81
2022/10/27 08:47:30;;;;;;;14.20;5.07;;;;;;;15.32;49.87;95083.06;5060698;28;20066;-81
2022/10/27 08:50:04;;;;;;;17.30;4.60;;;;;;;15.43;49.53;95078.97;5061394;28;20273;-81
2022/10/27 08:52:37;;;;;;;11.98;4.90;;;;;;;15.54;49.02;95082.16;5062372;28;20024;-81
2022/10/27 08:55:12;;;;;;;14.25;5.03;;;;;;;15.62;48.41;95090.22;5062393;28;20021;-81
2022/10/27 08:57:43;;;;;;;10.40;4.90;;;;;;;15.67;48.27;95075.03;5062368;28;20025;-81
2022/10/27 09:00:11;;;;;;;20.13;5.57;;;;;;;15.75;47.53;95080.47;5061065;28;20032;-81
2022/10/27 09:02:40;;;;;;;15.65;4.32;;;;;;;15.71;47.80;95086.75;5060831;28;20025;-81
2022/10/27 09:05:36;;;;;;;11.43;4.25;;;;;;;15.82;46.95;95088.06;5062067;28;20100;-81
2022/10/27 09:08:04;;;;;;;21.63;5.50;;;;;;;15.89;47.11;95088.34;5062040;28;20017;-81
2022/10/27 09:10:51;;;;;;;9.52;4.38;;;;;;;15.98;47.09;95089.16;5062370;28;20234;-81
2022/10/27 09:13:26;;;;;;;11.35;4.13;;;;;;;16.06;46.63;95090.28;5062172;28;20017;-80
2022/10/27 09:15:58;;;;;;;13.77;4.70;;;;;;;16.16;45.83;95087.25;5062134;28;20025;-81
2022/10/27 09:18:29;;;;;;;9.97;3.23;;;;;;;16.23;43.28;95086.75;5063742;28;20021;-80
2022/10/27 09:20:57;;;;;;;9.00;4.03;;;;;;;16.33;43.77;95085.66;5066086;28;20376;-80
2022/10/27 09:23:57;;;;;;;8.60;3.30;;;;;;;16.45;43.26;95088.47;5066844;28;20021;-82
2022/10/27 09:26:31;;;;;;;6.18;2.65;;;;;;;16.51;43.58;95076.44;5062905;28;20037;-81
2022/10/27 09:29:01;;;;;;;9.50;3.35;;;;;;;16.62;43.97;95080.34;5066126;28;20188;-82
2022/10/27 09:31:39;;;;;;;9.88;4.15;;;;;;;16.75;44.10;95077.75;5065881;28;20021;-82
2022/10/27 09:34:23;;;;;;;7.50;3.95;;;;;;;16.89;42.49;95081.06;5065709;28;20025;-81
2022/10/27 09:36:48;;;;;;;13.65;4.88;;;;;;;17.04;41.33;95072.47;5065837;28;20041;-81
2022/10/27 09:39:14;;;;;;;8.05;2.70;;;;;;;17.12;40.42;95072.75;5065799;28;20250;-80
2022/10/27 09:41:40;;;;;;;16.48;3.55;;;;;;;17.18;39.64;95066.06;5065471;28;20017;-81
2022/10/27 09:44:19;;;;;;;10.30;3.22;;;;;;;17.21;40.23;95060.00;5065544;28;20025;-81
2022/10/27 09:46:52;;;;;;;20.77;4.78;;;;;;;17.26;40.35;95057.16;5065316;28;20028;-78
2022/10/27 09:49:19;;;;;;;40.25;4.20;;;;;;;17.36;39.98;95067.53;5065465;28;20021;-79
2022/10/27 09:51:57;;;;;;;10.90;2.92;;;;;;;17.31;38.68;95059.63;5047627;28;20257;-80
2022/10/27 09:54:34;;;;;;;9.32;4.00;;;;;;;17.41;39.43;95061.16;5065270;28;20017;-79
2022/10/27 09:57:18;;;;;;;14.35;3.80;;;;;;;17.48;38.78;95064.13;5065196;28;20025;-80
2022/10/27 09:59:53;;;;;;;9.40;2.80;;;;;;;17.48;38.67;95058.72;5065417;28;20036;-80
2022/10/27 10:02:29;;;;;;;9.27;3.40;;;;;;;17.56;39.10;95054.41;5047779;28;20035;-79
2022/10/27 10:04:56;;;;;;;13.88;3.08;;;;;;;17.64;39.57;95056.25;5065072;28;20036;-79
2022/10/27 10:07:31;;;;;;;7.78;2.08;;;;;;;17.69;37.55;95056.06;5064899;28;20222;-80
2022/10/27 10:10:23;;;;;;;2.90;1.27;;;;;;;17.74;36.11;95047.75;5064930;28;20059;-79
2022/10/27 10:13:02;;;;;;;3.50;1.30;;;;;;;17.77;36.16;95047.13;5065010;28;20013;-79
2022/10/27 10:15:28;;;;;;;9.95;1.75;;;;;;;17.95;36.71;95049.69;5064764;28;20048;-79
2022/10/27 10:17:59;;;;;;;9.98;2.95;;;;;;;18.06;37.11;95050.88;5064806;28;20032;-79
2022/10/27 10:20:27;;;;;;;8.93;2.60;;;;;;;18.18;36.64;95053.59;5064919;28;20323;-78
2022/10/27 10:22:53;;;;;;;8.43;2.20;;;;;;;18.30;36.75;95050.16;5064630;28;20037;-79
2022/10/27 10:25:26;;;;;;;13.35;2.05;;;;;;;18.45;35.84;95049.53;5064575;28;20017;-81
2022/10/27 10:27:58;;;;;;;6.97;1.70;;;;;;;18.56;35.21;95055.31;5064535;28;20349;-81
2022/10/27 10:30:23;;;;;;;;;;;;;;;18.68;34.71;95049.09;5047135;28;20021;-80
2022/10/27 10:32:55;;;;;;;5.93;1.63;;;;;;;18.77;33.60;95047.09;5064669;28;19946;-80
2022/10/27 10:35:44;;;;;;;7.57;1.80;;;;;;;18.90;33.84;95045.22;5064632;28;20238;-80
2022/10/27 10:38:26;;;;;;;4.25;1.65;;;;;;;18.98;34.24;95043.56;5064493;28;20036;-80
2022/10/27 10:41:12;;;;;;;;;;;;;;;19.06;33.80;95052.69;5064704;28;20059;-80
2022/10/27 10:43:38;;;;;;;9.23;1.67;;;;;;;19.16;35.96;95046.81;5063753;28;19916;-78
2022/10/27 10:46:34;;;;;;;3.40;1.50;;;;;;;19.29;32.97;95042.19;5064498;28;20200;-79
2022/10/27 10:49:01;;;;;;;6.30;1.85;;;;;;;19.37;33.24;95038.56;5051378;28;20037;-82
2022/10/27 10:51:30;;;;;;;3.67;1.70;;;;;;;19.42;33.95;95025.63;5063933;28;20017;-78
2022/10/27 10:54:13;;;;;;;4.25;2.00;;;;;;;19.53;32.88;95033.25;5064353;28;20031;-79
2022/10/27 10:56:38;;;;;;;6.93;2.03;;;;;;;19.54;31.77;95034.81;5064267;28;20232;-79
2022/10/27 10:59:13;;;;;;;5.03;2.72;;;;;;;19.62;32.70;95025.78;5064043;28;20024;-80
2022/10/27 11:01:51;;;;;;;4.60;2.05;;;;;;;19.62;32.46;95020.38;5063981;28;20024;-80
2022/10/27 11:04:21;;;;;;;7.30;2.42;;;;;;;19.69;31.40;95009.78;5063944;28;20108;-79
2022/10/27 11:07:02;;;;;;;6.13;2.25;;;;;;;19.72;31.67;95016.44;5064309;28;20087;-80
2022/10/27 11:09:45;;;;;;;9.85;2.25;;;;;;;19.80;33.42;95016.31;5063807;28;20135;-80
2022/10/27 11:12:28;;;;;;;5.20;2.17;;;;;;;19.93;33.03;95017.06;5063848;28;20024;-79
2022/10/27 11:15:03;;;;;;;5.03;1.98;;;;;;;20.04;32.98;95011.94;5063685;28;20036;-80
2022/10/27 11:17:32;;;;;;;11.32;2.33;;;;;;;20.20;31.69;95012.75;5063779;28;20024;-81
2022/10/27 11:19:58;;;;;;;4.90;1.90;;;;;;;20.26;32.31;95002.47;5063693;28;20104;-80
2022/10/27 11:22:25;;;;;;;12.95;2.08;;;;;;;20.36;32.50;95006.59;5063476;28;20296;-79
2022/10/27 11:24:58;;;;;;;7.47;2.22;;;;;;;20.40;30.95;95005.53;5063635;28;20204;-79
2022/10/27 11:27:29;;;;;;;4.65;1.88;;;;;;;20.44;31.06;94997.53;5063563;28;20070;-78
2022/10/27 11:30:09;;;;;;;8.80;1.63;;;;;;;20.40;31.03;95000.13;5063672;28;20036;-82
2022/10/27 11:32:44;;;;;;;4.95;1.60;;;;;;;20.49;30.58;95004.59;5063425;28;20013;-81
2022/10/27 11:35:24;;;;;;;4.63;1.70;;;;;;;20.55;30.37;94997.78;5063088;28;20052;-82
2022/10/27 11:38:03;;;;;;;5.40;1.45;;;;;;;20.59;29.99;94991.34;5063483;28;20020;-81
2022/10/27 11:41:01;;;;;;;8.02;2.35;;;;;;;20.71;30.45;94987.75;5062758;28;20231;-81